Time;durP1;ratioP1;P1;durP2;ratioP2;P2;SDS_P1;SDS_P2;PMS_P1;PMS_P2;Temp;Humidity;BMP_temperature;BMP_pressure;BME280_temperature;BME280_humidity;BME280_pressure;Samples;Min_cycle;Max_cycle;Signal;HPM_P1;HPM_P2
2022/08/06 00:00:33;;;;;;;9.07;2.03;;;;;;;14.09;71.61;102392.66;6182281;23;20451;-72
2022/08/06 00:02:58;;;;;;;9.27;2.08;;;;;;;14.08;71.76;102385.53;6184174;23;20116;-71
2022/08/06 00:05:25;;;;;;;10.20;2.30;;;;;;;14.08;71.45;102384.69;6185389;23;20008;-71
2022/08/06 00:07:50;;;;;;;7.40;2.10;;;;;;;14.05;71.34;102388.66;6184919;23;20000;-73
2022/08/06 00:10:17;;;;;;;7.75;2.30;;;;;;;14.00;71.70;102392.03;6184235;23;20399;-72
2022/08/06 00:12:43;;;;;;;5.97;2.10;;;;;;;14.06;71.66;102389.53;6185382;23;20005;-71
2022/08/06 00:15:09;;;;;;;10.27;2.25;;;;;;;14.07;71.61;102394.75;6184387;23;20012;-72
2022/08/06 00:17:34;;;;;;;10.15;1.98;;;;;;;13.96;72.17;102392.66;6184969;23;20310;-72
2022/08/06 00:20:00;;;;;;;8.85;2.42;;;;;;;13.94;72.83;102395.59;6184813;23;20334;-72
2022/08/06 00:22:25;;;;;;;9.00;2.70;;;;;;;13.83;72.99;102391.59;6185279;23;20008;-72
2022/08/06 00:24:50;;;;;;;8.70;2.45;;;;;;;13.88;73.12;102401.03;6184934;23;20015;-73
2022/08/06 00:27:16;;;;;;;7.15;2.20;;;;;;;13.82;73.90;102400.81;6157884;23;20035;-72
2022/08/06 00:29:41;;;;;;;7.78;2.58;;;;;;;13.85;74.09;102404.19;6184561;23;20011;-72
2022/08/06 00:32:06;;;;;;;5.13;2.35;;;;;;;13.94;73.18;102411.91;6158705;23;20108;-72
2022/08/06 00:34:31;;;;;;;5.28;2.13;;;;;;;13.93;74.04;102415.66;6185171;23;20013;-73
2022/08/06 00:36:57;;;;;;;9.23;2.58;;;;;;;13.84;73.42;102422.38;6184569;23;20009;-73
2022/08/06 00:39:22;;;;;;;9.55;2.50;;;;;;;13.90;73.80;102417.97;6184670;23;20080;-72
2022/08/06 00:41:47;;;;;;;8.23;2.63;;;;;;;13.90;73.83;102415.25;6158769;23;20415;-72
2022/08/06 00:44:14;;;;;;;9.57;2.47;;;;;;;13.80;74.41;102412.97;6185072;23;20008;-72
2022/08/06 00:46:39;;;;;;;7.68;2.90;;;;;;;13.73;74.10;102410.22;6184660;23;20056;-73
2022/08/06 00:49:05;;;;;;;9.43;2.70;;;;;;;13.70;75.05;102412.53;6184167;23;20009;-71
2022/08/06 00:51:30;;;;;;;10.35;3.20;;;;;;;13.65;74.57;102419.44;6185383;23;20029;-72
2022/08/06 00:53:55;;;;;;;8.10;2.42;;;;;;;13.69;75.02;102421.72;6184628;23;20084;-72
2022/08/06 00:56:21;;;;;;;6.53;2.70;;;;;;;13.54;75.23;102422.78;6185110;23;20183;-73
2022/08/06 00:58:46;;;;;;;8.30;2.30;;;;;;;13.45;76.44;102426.69;6184194;23;20485;-73
2022/08/06 01:01:12;;;;;;;10.68;2.63;;;;;;;13.54;76.48;102428.22;6153560;23;20029;-73
2022/08/06 01:03:37;;;;;;;8.20;2.70;;;;;;;13.44;76.74;102422.31;6184735;23;20051;-72
2022/08/06 01:06:03;;;;;;;4.85;2.30;;;;;;;13.38;76.43;102434.84;6184651;23;20005;-73
2022/08/06 01:08:28;;;;;;;10.75;3.25;;;;;;;13.49;76.51;102438.03;6183989;23;20005;-73
2022/08/06 01:10:54;;;;;;;12.27;2.80;;;;;;;13.45;76.55;102440.31;6158314;23;20055;-73
2022/08/06 01:13:19;;;;;;;8.18;2.60;;;;;;;13.39;78.03;102443.84;6184660;23;20314;-73
2022/08/06 01:15:51;;;;;;;8.88;2.70;;;;;;;13.40;78.12;102450.97;6184872;23;20000;-72
2022/08/06 01:18:25;;;;;;;9.63;2.85;;;;;;;13.43;76.58;102456.00;6183313;23;20084;-72
2022/08/06 01:21:13;;;;;;;7.32;2.70;;;;;;;13.49;76.51;102449.72;6184806;23;20009;-74
2022/08/06 01:24:15;;;;;;;7.10;2.40;;;;;;;13.45;76.83;102453.91;6184821;23;20005;-74
2022/08/06 01:26:50;;;;;;;9.40;2.58;;;;;;;13.38;77.42;102453.88;6184563;23;20460;-71
2022/08/06 01:29:17;;;;;;;6.93;2.70;;;;;;;13.36;77.68;102460.56;6183592;23;20387;-73
2022/08/06 01:31:52;;;;;;;10.20;2.88;;;;;;;13.36;77.29;102461.44;6158438;23;20060;-73
2022/08/06 01:34:48;;;;;;;7.40;2.53;;;;;;;13.38;77.73;102456.59;6184117;23;20005;-73
2022/08/06 01:37:35;;;;;;;6.50;2.55;;;;;;;13.30;79.50;102459.50;6184138;23;20005;-72
2022/08/06 01:40:04;;;;;;;9.35;2.65;;;;;;;13.29;78.83;102455.09;6184483;23;20087;-71
2022/08/06 01:42:32;;;;;;;5.38;2.50;;;;;;;13.24;79.47;102443.97;6184434;23;20090;-71
2022/08/06 01:45:03;;;;;;;8.10;2.70;;;;;;;13.03;80.21;102455.78;6184124;23;20005;-72
2022/08/06 01:47:31;;;;;;;6.93;3.00;;;;;;;13.01;80.58;102452.44;6184031;23;20450;-73
2022/08/06 01:50:02;;;;;;;10.15;3.10;;;;;;;12.96;81.82;102453.06;6184599;23;20001;-73
2022/08/06 01:52:31;;;;;;;9.38;3.05;;;;;;;13.08;80.38;102456.06;6184766;23;20083;-73
2022/08/06 01:54:58;;;;;;;5.60;2.65;;;;;;;13.17;79.73;102451.28;6184283;23;20005;-72
2022/08/06 01:57:26;;;;;;;8.30;2.83;;;;;;;13.12;79.84;102451.91;6157547;23;20001;-72
2022/08/06 01:59:53;;;;;;;9.35;2.78;;;;;;;13.09;79.97;102463.16;6158308;23;20450;-72
2022/08/06 02:02:23;;;;;;;9.55;3.10;;;;;;;13.11;80.09;102456.47;6179914;23;20023;-72
2022/08/06 02:04:54;;;;;;;7.93;2.95;;;;;;;13.08;80.17;102459.59;6183759;23;20063;-72
2022/08/06 02:07:23;;;;;;;6.97;2.67;;;;;;;13.04;81.84;102455.59;6183862;23;20005;-73
2022/08/06 02:09:51;;;;;;;7.97;2.97;;;;;;;13.10;80.87;102459.38;6158176;23;20092;-73
2022/08/06 02:12:20;;;;;;;6.43;2.63;;;;;;;13.01;83.18;102457.88;6184258;23;20009;-73
2022/08/06 02:14:52;;;;;;;5.35;2.70;;;;;;;12.99;83.07;102468.13;6183847;23;20005;-73
2022/08/06 02:17:20;;;;;;;7.65;3.00;;;;;;;13.02;82.46;102465.00;6183234;23;20004;-73
2022/08/06 02:19:49;;;;;;;6.18;2.65;;;;;;;12.96;83.83;102460.38;6184019;23;20092;-73
2022/08/06 02:22:15;;;;;;;10.20;3.22;;;;;;;13.01;82.00;102460.59;6184311;23;20005;-73
2022/08/06 02:24:41;;;;;;;8.88;2.97;;;;;;;13.04;81.89;102465.63;6184273;23;20414;-73
2022/08/06 02:27:08;;;;;;;7.38;2.40;;;;;;;13.05;82.29;102468.16;6183841;23;20005;-72
2022/08/06 02:29:34;;;;;;;9.75;2.80;;;;;;;12.93;82.87;102470.59;6184485;23;20063;-72
2022/08/06 02:32:00;;;;;;;3.85;2.45;;;;;;;12.89;82.54;102461.19;6183900;23;20009;-73
2022/08/06 02:34:25;;;;;;;7.38;2.90;;;;;;;12.78;83.56;102461.75;6183826;23;20032;-71
2022/08/06 02:37:03;;;;;;;9.88;2.88;;;;;;;12.71;85.41;102472.59;6184019;23;20047;-71
2022/08/06 02:39:35;;;;;;;9.77;2.80;;;;;;;12.72;86.72;102465.25;6186257;23;20009;-72
2022/08/06 02:42:06;;;;;;;8.27;3.22;;;;;;;12.75;85.90;102462.16;6186365;23;20292;-72
2022/08/06 02:44:56;;;;;;;5.90;2.78;;;;;;;12.72;85.50;102470.69;6185865;23;20496;-73
2022/08/06 02:47:33;;;;;;;5.60;2.80;;;;;;;12.69;85.59;102462.94;6185605;23;20048;-71
2022/08/06 02:50:02;;;;;;;7.97;2.85;;;;;;;12.64;85.33;102471.69;6186240;23;20008;-73
2022/08/06 02:53:00;;;;;;;5.28;2.88;;;;;;;12.66;86.33;102463.34;6185920;23;20124;-71
2022/08/06 02:55:30;;;;;;;12.38;3.35;;;;;;;12.74;84.90;102468.59;6150634;23;20013;-73
2022/08/06 02:57:59;;;;;;;10.00;3.33;;;;;;;12.67;85.67;102465.03;6185622;23;20005;-73
2022/08/06 03:00:27;;;;;;;9.10;3.20;;;;;;;12.71;85.34;102456.28;6183535;23;20316;-73
2022/08/06 03:02:56;;;;;;;6.60;2.78;;;;;;;12.72;86.05;102470.69;6183694;23;20021;-72
2022/08/06 03:05:22;;;;;;;4.90;2.85;;;;;;;12.70;85.93;102467.34;6185848;23;20088;-73
2022/08/06 03:07:54;;;;;;;7.90;3.20;;;;;;;12.73;85.70;102464.22;6185556;23;20036;-72
2022/08/06 03:10:20;;;;;;;;;;;;;;;12.93;80.70;102473.31;6186160;23;20008;-73
2022/08/06 03:12:48;;;;;;;10.13;3.30;;;;;;;12.77;83.52;102476.34;6185235;23;19915;-72
2022/08/06 03:15:16;;;;;;;6.43;3.15;;;;;;;12.73;84.13;102472.38;6185701;23;20005;-72
2022/08/06 03:17:43;;;;;;;11.13;3.20;;;;;;;12.72;82.99;102473.41;6185431;23;20068;-73
2022/08/06 03:20:09;;;;;;;8.00;3.15;;;;;;;12.74;83.32;102474.03;6185389;23;20021;-72
2022/08/06 03:22:36;;;;;;;7.63;3.20;;;;;;;12.64;84.52;102481.72;6185923;23;20477;-72
2022/08/06 03:25:04;;;;;;;6.82;3.10;;;;;;;12.51;85.83;102483.28;6185888;23;20009;-71
2022/08/06 03:27:31;;;;;;;9.00;3.10;;;;;;;12.39;87.32;102474.00;6185277;23;20039;-71
2022/08/06 03:29:58;;;;;;;11.95;3.70;;;;;;;12.30;88.89;102481.47;6185422;23;20323;-72
2022/08/06 03:32:24;;;;;;;8.05;3.10;;;;;;;12.25;89.64;102478.50;6185616;23;20080;-72
2022/08/06 03:34:50;;;;;;;4.22;3.00;;;;;;;12.23;90.41;102491.44;6185914;23;20446;-71
2022/08/06 03:37:18;;;;;;;9.40;3.20;;;;;;;12.22;91.38;102490.59;6184362;23;20330;-72
2022/08/06 03:39:44;;;;;;;7.97;3.10;;;;;;;12.11;91.80;102496.56;6185015;23;20172;-71
2022/08/06 03:42:10;;;;;;;9.15;3.10;;;;;;;12.14;90.86;102496.16;6185121;23;20307;-72
2022/08/06 03:44:36;;;;;;;6.93;3.10;;;;;;;12.13;91.20;102494.47;6185669;23;20035;-72
2022/08/06 03:47:32;;;;;;;5.93;2.92;;;;;;;12.13;90.99;102499.06;6185371;23;20005;-71
2022/08/06 03:50:14;;;;;;;9.48;3.05;;;;;;;12.11;90.49;102492.97;6183612;23;20005;-73
2022/08/06 03:52:43;;;;;;;6.88;2.95;;;;;;;12.03;90.83;102491.25;6159285;23;20493;-72
2022/08/06 03:55:14;;;;;;;5.68;2.95;;;;;;;11.93;92.27;102501.59;6185431;23;20033;-73
2022/08/06 03:57:45;;;;;;;8.70;2.97;;;;;;;11.92;92.02;102499.88;6185104;23;20005;-73
2022/08/06 04:00:14;;;;;;;5.90;2.95;;;;;;;11.94;92.95;102498.69;6184535;23;20061;-72
2022/08/06 04:02:44;;;;;;;6.32;2.65;;;;;;;11.87;92.89;102509.44;6181230;23;20342;-73
2022/08/06 04:05:11;;;;;;;6.32;3.08;;;;;;;11.96;91.52;102517.50;6185255;23;20036;-73
2022/08/06 04:07:38;;;;;;;8.18;2.58;;;;;;;12.01;90.90;102513.16;6185190;23;20012;-73
2022/08/06 04:10:04;;;;;;;6.40;3.03;;;;;;;11.93;90.77;102515.16;6184915;23;20029;-72
2022/08/06 04:12:31;;;;;;;5.38;2.85;;;;;;;11.97;90.57;102516.44;6185312;23;20032;-72
2022/08/06 04:14:56;;;;;;;7.63;3.10;;;;;;;11.88;90.27;102515.69;6185413;23;20012;-73
2022/08/06 04:17:23;;;;;;;6.10;2.88;;;;;;;11.94;90.66;102520.41;6184692;23;20334;-72
2022/08/06 04:19:49;;;;;;;9.05;2.92;;;;;;;11.86;91.22;102524.03;6184781;23;20012;-72
2022/08/06 04:22:15;;;;;;;6.90;3.00;;;;;;;11.83;90.59;102518.97;6183912;23;20347;-72
2022/08/06 04:24:41;;;;;;;7.03;3.10;;;;;;;11.73;91.47;102518.47;6185241;23;20005;-73
2022/08/06 04:27:08;;;;;;;9.00;3.53;;;;;;;11.85;90.47;102521.50;6184826;23;20000;-73
2022/08/06 04:29:36;;;;;;;9.82;3.25;;;;;;;11.93;90.22;102529.56;6184167;23;20448;-73
2022/08/06 04:32:08;;;;;;;9.38;3.40;;;;;;;11.94;90.33;102533.09;6185185;23;20016;-72
2022/08/06 04:34:43;;;;;;;7.43;2.95;;;;;;;11.91;90.07;102531.56;6184113;23;20001;-72
2022/08/06 04:37:09;;;;;;;5.72;3.35;;;;;;;11.94;91.15;102530.41;6184380;23;20027;-72
2022/08/06 04:39:39;;;;;;;6.95;3.05;;;;;;;11.96;90.21;102533.78;6184391;23;20432;-73
2022/08/06 04:42:07;;;;;;;8.57;3.38;;;;;;;11.96;91.90;102531.06;6158723;23;20005;-73
2022/08/06 04:44:34;;;;;;;8.88;3.20;;;;;;;11.97;92.52;102535.44;6184932;23;20005;-76
2022/08/06 04:47:04;;;;;;;8.18;3.30;;;;;;;11.99;91.84;102536.09;6158351;23;20001;-77
2022/08/06 04:49:29;;;;;;;5.88;3.03;;;;;;;12.03;91.33;102537.38;6183720;23;20001;-74
2022/08/06 04:51:55;;;;;;;9.68;3.50;;;;;;;12.03;90.17;102540.09;6185145;23;20009;-73
2022/08/06 04:54:20;;;;;;;9.32;3.50;;;;;;;12.09;89.36;102541.19;6184793;23;20009;-72
2022/08/06 04:56:46;;;;;;;9.73;3.17;;;;;;;12.09;92.14;102544.72;6183991;23;20419;-71
2022/08/06 04:59:12;;;;;;;4.28;2.83;;;;;;;12.08;91.26;102551.22;6183971;23;20016;-74
2022/08/06 05:01:37;;;;;;;5.95;3.20;;;;;;;12.10;92.72;102543.72;6179514;23;20035;-73
2022/08/06 05:04:03;;;;;;;8.50;3.55;;;;;;;12.16;93.22;102551.06;6184755;23;20314;-73
2022/08/06 05:06:40;;;;;;;6.20;3.30;;;;;;;12.26;89.76;102550.78;6183954;23;20008;-72
2022/08/06 05:09:18;;;;;;;4.97;2.90;;;;;;;12.33;91.17;102540.78;6158191;23;20092;-73
2022/08/06 05:11:50;;;;;;;6.47;3.55;;;;;;;12.33;90.99;102554.34;6184287;23;20005;-73
2022/08/06 05:14:21;;;;;;;7.75;3.35;;;;;;;12.49;89.07;102550.53;6158159;23;20308;-71
2022/08/06 05:16:48;;;;;;;8.73;3.90;;;;;;;12.55;87.76;102557.91;6184503;23;20035;-74
2022/08/06 05:19:23;;;;;;;9.18;3.60;;;;;;;12.63;87.38;102558.81;6184446;23;20013;-72
2022/08/06 05:21:50;;;;;;;10.60;3.70;;;;;;;12.65;87.89;102551.28;6184239;23;20009;-72
2022/08/06 05:24:15;;;;;;;6.90;3.22;;;;;;;12.64;87.83;102563.22;6158299;23;20011;-74
2022/08/06 05:26:41;;;;;;;11.98;3.63;;;;;;;12.64;88.77;102564.03;6184552;23;20088;-71
2022/08/06 05:29:06;;;;;;;9.52;3.25;;;;;;;12.69;88.06;102567.00;6184306;23;20012;-73
2022/08/06 05:31:37;;;;;;;8.88;3.85;;;;;;;12.75;87.74;102566.19;6183972;23;20015;-74
2022/08/06 05:34:03;;;;;;;11.32;3.67;;;;;;;12.83;86.91;102565.25;6158189;23;20032;-74
2022/08/06 05:36:29;;;;;;;18.60;3.90;;;;;;;12.91;87.07;102575.13;6184394;23;20005;-74
2022/08/06 05:38:54;;;;;;;18.33;3.90;;;;;;;12.92;87.04;102572.19;6184393;23;20056;-71
2022/08/06 05:41:20;;;;;;;18.90;4.15;;;;;;;13.02;88.11;102571.00;6184197;23;20009;-73
2022/08/06 05:43:45;;;;;;;17.20;4.07;;;;;;;13.05;90.02;102573.31;6184740;23;20029;-74
2022/08/06 05:46:16;;;;;;;14.43;3.70;;;;;;;13.07;89.73;102576.66;6184690;23;20001;-74
2022/08/06 05:48:46;;;;;;;10.43;3.40;;;;;;;13.02;90.17;102579.16;6184839;23;20076;-74
2022/08/06 05:51:19;;;;;;;12.18;3.78;;;;;;;13.00;90.20;102589.34;6184270;23;20005;-72
2022/08/06 05:53:48;;;;;;;13.80;3.53;;;;;;;12.91;92.06;102586.81;6184782;23;20498;-71
2022/08/06 05:56:18;;;;;;;15.02;3.40;;;;;;;12.93;95.09;102579.28;6184435;23;20005;-73
2022/08/06 05:58:57;;;;;;;16.95;3.80;;;;;;;12.92;93.39;102571.34;6184685;23;20001;-72
2022/08/06 06:01:23;;;;;;;15.57;3.88;;;;;;;12.91;94.68;102581.38;6179718;23;20033;-72
2022/08/06 06:03:50;;;;;;;16.60;4.15;;;;;;;12.90;96.13;102579.69;6184781;23;20005;-72
2022/08/06 06:06:16;;;;;;;11.10;3.78;;;;;;;12.93;97.38;102584.72;6184125;23;20434;-71
2022/08/06 06:08:42;;;;;;;10.52;3.90;;;;;;;12.99;97.24;102583.09;6184677;23;20009;-74
2022/08/06 06:11:08;;;;;;;7.93;3.80;;;;;;;13.06;97.15;102589.41;6183737;23;20425;-73
2022/08/06 06:13:34;;;;;;;8.75;3.70;;;;;;;13.09;97.43;102590.91;6185844;23;20008;-73
2022/08/06 06:16:10;;;;;;;15.20;4.10;;;;;;;13.15;97.89;102592.81;6186596;23;20309;-72
2022/08/06 06:18:49;;;;;;;9.80;3.97;;;;;;;13.17;98.47;102596.19;6159635;23;20020;-73
2022/08/06 06:21:46;;;;;;;12.27;4.20;;;;;;;13.26;97.80;102589.53;6186336;23;20012;-74
2022/08/06 06:24:28;;;;;;;8.98;3.53;;;;;;;13.34;98.55;102594.00;6186599;23;20110;-75
2022/08/06 06:27:00;;;;;;;11.25;3.60;;;;;;;13.41;100.00;102597.59;6186580;23;20469;-75
2022/08/06 06:29:38;;;;;;;7.30;3.45;;;;;;;13.49;100.00;102596.59;6185637;23;20325;-75
2022/08/06 06:32:17;;;;;;;9.18;3.55;;;;;;;13.62;99.38;102599.38;6186604;23;20051;-73
2022/08/06 06:35:01;;;;;;;13.13;3.70;;;;;;;13.79;100.00;102601.75;6186595;23;20075;-73
2022/08/06 06:37:41;;;;;;;8.70;3.97;;;;;;;13.92;100.00;102593.63;6185742;23;20032;-75
2022/08/06 06:40:24;;;;;;;11.93;3.60;;;;;;;14.09;98.45;102598.72;6185659;23;20009;-75
2022/08/06 06:42:55;;;;;;;11.30;3.85;;;;;;;14.21;96.15;102607.13;6186076;23;20005;-74
2022/08/06 06:45:29;;;;;;;17.27;3.78;;;;;;;14.31;96.79;102610.25;6185776;23;20028;-73
2022/08/06 06:48:06;;;;;;;8.40;3.00;;;;;;;14.43;93.52;102600.44;6159787;23;20005;-74
2022/08/06 06:50:34;;;;;;;11.98;2.80;;;;;;;14.52;94.80;102599.19;6185094;23;20170;-74
2022/08/06 06:53:00;;;;;;;14.32;2.90;;;;;;;14.67;93.13;102612.66;6185020;23;20013;-75
2022/08/06 06:55:39;;;;;;;6.90;2.80;;;;;;;14.78;91.72;102604.88;6184343;23;20032;-73
2022/08/06 06:58:31;;;;;;;8.48;2.83;;;;;;;14.87;88.24;102607.19;6185701;23;20001;-73
2022/08/06 07:00:58;;;;;;;7.28;2.35;;;;;;;15.04;89.08;102614.94;6181810;23;20021;-74
2022/08/06 07:03:27;;;;;;;8.88;2.72;;;;;;;15.11;85.40;102613.00;6185274;23;20005;-74
2022/08/06 07:05:54;;;;;;;12.63;2.80;;;;;;;15.26;87.75;102604.59;6159681;23;20036;-74
2022/08/06 07:08:22;;;;;;;10.48;2.28;;;;;;;15.35;83.69;102603.34;6158393;23;20397;-74
2022/08/06 07:10:50;;;;;;;8.65;2.10;;;;;;;15.44;80.15;102594.91;6185488;23;20005;-74
2022/08/06 07:13:17;;;;;;;5.32;1.50;;;;;;;15.49;77.24;102606.00;6185916;23;20029;-75
2022/08/06 07:15:44;;;;;;;7.72;1.35;;;;;;;15.53;78.78;102605.34;6185806;23;20005;-75
2022/08/06 07:18:11;;;;;;;7.82;2.00;;;;;;;15.60;77.29;102611.63;6185413;23;20070;-73
2022/08/06 07:20:37;;;;;;;4.85;1.42;;;;;;;15.68;74.78;102613.28;6184970;23;20010;-74
2022/08/06 07:23:06;;;;;;;6.38;1.50;;;;;;;15.73;73.27;102623.53;6185879;23;20055;-75
2022/08/06 07:25:37;;;;;;;5.72;1.27;;;;;;;15.79;74.30;102619.97;6185337;23;20076;-75
2022/08/06 07:28:04;;;;;;;5.32;1.17;;;;;;;15.88;72.51;102624.16;6184511;23;20005;-73
2022/08/06 07:30:32;;;;;;;10.38;1.63;;;;;;;15.94;73.49;102625.16;6157575;23;20071;-71
2022/08/06 07:32:58;;;;;;;6.18;1.20;;;;;;;16.03;70.45;102632.03;6185927;23;20012;-71
2022/08/06 07:35:23;;;;;;;7.57;0.93;;;;;;;16.08;70.61;102625.94;6159116;23;20338;-72
2022/08/06 07:38:04;;;;;;;7.65;2.10;;;;;;;16.13;71.04;102629.66;6185854;23;20031;-72
2022/08/06 07:40:39;;;;;;;6.55;1.27;;;;;;;16.19;70.46;102636.16;6159156;23;20005;-72
2022/08/06 07:43:09;;;;;;;7.55;1.40;;;;;;;16.25;70.63;102634.44;6159367;23;20087;-77
2022/08/06 07:45:39;;;;;;;4.72;1.40;;;;;;;16.34;70.10;102633.13;6158517;23;20012;-80
2022/08/06 07:48:19;;;;;;;4.95;1.83;;;;;;;16.38;69.31;102639.84;6158216;23;20012;-73
2022/08/06 07:50:49;;;;;;;10.82;2.17;;;;;;;16.43;69.00;102634.53;6158682;23;20326;-73
2022/08/06 07:53:15;;;;;;;7.25;1.55;;;;;;;16.43;68.58;102637.28;6158932;23;20016;-78
2022/08/06 07:55:43;;;;;;;6.50;1.27;;;;;;;16.56;68.23;102639.09;6185127;23;20437;-78
2022/08/06 07:58:09;;;;;;;4.05;1.27;;;;;;;16.65;67.99;102640.47;6185203;23;20001;-72
2022/08/06 08:00:36;;;;;;;6.07;1.50;;;;;;;16.65;67.35;102639.63;6182068;23;20033;-74
2022/08/06 08:08:32;;;;;;;3.17;1.58;;;;;;;16.67;66.58;102637.53;6184984;23;20040;-75
2022/08/06 08:10:57;;;;;;;7.80;1.30;;;;;;;16.71;66.10;102660.59;6184259;23;20001;-74
2022/08/06 08:13:24;;;;;;;5.18;1.30;;;;;;;16.80;67.12;102644.75;6185160;23;20591;-77
2022/08/06 08:15:50;;;;;;;3.55;1.02;;;;;;;16.79;66.07;102641.22;6185033;23;20005;-78
2022/08/06 08:18:15;;;;;;;7.38;1.17;;;;;;;16.88;64.24;102649.16;6184089;23;20028;-76
2022/08/06 08:20:42;;;;;;;7.32;1.20;;;;;;;16.93;64.32;102646.59;6184952;23;20086;-72
2022/08/06 08:23:11;;;;;;;3.72;1.13;;;;;;;16.92;63.57;102653.13;6185402;23;20016;-71
2022/08/06 08:25:37;;;;;;;5.65;1.23;;;;;;;16.96;63.82;102651.63;6185118;23;20005;-71
2022/08/06 08:28:02;;;;;;;3.97;1.02;;;;;;;16.99;63.47;102649.25;6158360;23;20091;-71
2022/08/06 08:30:27;;;;;;;6.07;1.20;;;;;;;16.99;63.58;102651.16;6184943;23;20001;-70
2022/08/06 08:32:53;;;;;;;2.65;1.02;;;;;;;16.97;63.37;102653.31;6185241;23;20036;-71
2022/08/06 08:35:18;;;;;;;4.10;1.05;;;;;;;17.07;64.71;102639.94;6184706;23;20001;-72
2022/08/06 08:37:43;;;;;;;4.18;1.58;;;;;;;17.18;63.37;102652.88;6184455;23;20001;-73
2022/08/06 08:40:09;;;;;;;4.30;1.15;;;;;;;17.29;62.64;102650.47;6185214;23;20016;-74
2022/08/06 08:42:42;;;;;;;3.13;0.70;;;;;;;17.25;61.71;102647.34;6184949;23;20012;-72
2022/08/06 08:45:09;;;;;;;6.57;1.30;;;;;;;17.36;62.58;102641.13;6184804;23;20009;-76
2022/08/06 08:47:39;;;;;;;4.05;1.00;;;;;;;17.42;61.46;102650.34;6158658;23;20008;-73
2022/08/06 08:50:05;;;;;;;4.72;1.15;;;;;;;17.44;59.73;102656.41;6184307;23;20005;-73
2022/08/06 08:52:36;;;;;;;3.15;1.05;;;;;;;17.50;59.42;102654.66;6184798;23;20337;-71
2022/08/06 08:55:06;;;;;;;3.95;0.90;;;;;;;17.43;58.25;102652.00;6185115;23;20009;-76
2022/08/06 08:57:33;;;;;;;4.72;0.80;;;;;;;17.47;58.83;102658.69;6184788;23;20013;-73
2022/08/06 09:00:00;;;;;;;2.95;0.90;;;;;;;17.46;58.11;102654.25;6184843;23;20005;-74
2022/08/06 09:02:26;;;;;;;2.53;0.80;;;;;;;17.50;55.99;102650.03;6180981;23;20017;-73
2022/08/06 09:04:53;;;;;;;5.30;1.10;;;;;;;17.62;58.78;102651.97;6185068;23;20044;-73
2022/08/06 09:07:18;;;;;;;4.88;1.00;;;;;;;17.67;57.77;102657.63;6184980;23;20005;-73
2022/08/06 09:09:44;;;;;;;4.85;1.00;;;;;;;17.74;57.51;102652.91;6183767;23;20088;-73
2022/08/06 09:12:09;;;;;;;4.93;0.95;;;;;;;17.87;56.45;102655.50;6185039;23;20001;-73
2022/08/06 09:14:35;;;;;;;4.03;0.85;;;;;;;17.81;55.95;102661.03;6184664;23;20008;-75
2022/08/06 09:17:05;;;;;;;4.65;1.00;;;;;;;17.81;57.38;102670.06;6184989;23;20001;-73
2022/08/06 09:19:32;;;;;;;4.60;0.93;;;;;;;17.85;57.93;102675.94;6184389;23;20044;-75
2022/08/06 09:21:59;;;;;;;4.50;0.95;;;;;;;17.79;56.75;102669.47;6184976;23;20005;-71
2022/08/06 09:24:25;;;;;;;4.05;0.90;;;;;;;17.87;56.66;102663.72;6184509;23;20031;-73
2022/08/06 09:27:05;;;;;;;2.88;0.80;;;;;;;17.95;57.27;102670.81;6184598;23;20009;-76
2022/08/06 09:29:30;;;;;;;3.67;0.77;;;;;;;18.02;55.61;102667.97;6184234;23;20330;-72
2022/08/06 09:31:56;;;;;;;3.40;0.88;;;;;;;18.16;56.96;102666.72;6184957;23;20005;-72
2022/08/06 09:34:31;;;;;;;2.83;0.80;;;;;;;18.24;56.62;102662.81;6184926;23;20477;-72
2022/08/06 09:36:56;;;;;;;3.67;0.98;;;;;;;18.24;54.73;102663.66;6184708;23;20418;-73
2022/08/06 09:39:41;;;;;;;3.50;1.20;;;;;;;18.30;56.27;102664.63;6184507;23;20016;-74
2022/08/06 09:42:07;;;;;;;3.08;0.88;;;;;;;18.27;54.91;102667.00;6184402;23;20434;-75
2022/08/06 09:44:33;;;;;;;3.38;1.13;;;;;;;18.42;55.38;102671.00;6184446;23;20005;-72
2022/08/06 09:47:00;;;;;;;2.47;0.82;;;;;;;18.36;52.42;102671.09;6186211;23;20009;-74
2022/08/06 09:49:26;;;;;;;3.78;1.00;;;;;;;18.35;54.24;102669.41;6186113;23;20377;-74
2022/08/06 09:52:10;;;;;;;2.97;0.88;;;;;;;18.31;54.67;102681.91;6186708;23;20005;-71
2022/08/06 09:54:38;;;;;;;2.72;0.90;;;;;;;18.34;52.61;102685.03;6186529;23;20020;-72
2022/08/06 09:57:03;;;;;;;1.85;0.90;;;;;;;18.33;51.24;102677.03;6186516;23;20016;-74
2022/08/06 09:59:42;;;;;;;3.13;0.80;;;;;;;18.38;53.45;102679.91;6186304;23;20001;-72
2022/08/06 10:02:13;;;;;;;4.18;0.90;;;;;;;18.45;52.83;102677.06;6182408;23;20021;-72
2022/08/06 10:04:38;;;;;;;2.38;1.00;;;;;;;18.50;52.50;102671.72;6186114;23;20013;-71
2022/08/06 10:07:04;;;;;;;3.15;0.80;;;;;;;18.56;51.57;102671.63;6186737;23;20004;-72
2022/08/06 10:09:32;;;;;;;4.10;0.88;;;;;;;18.70;52.43;102669.50;6186565;23;20024;-75
2022/08/06 10:11:58;;;;;;;0.90;0.40;;;;;;;18.75;50.19;102674.28;6186619;23;20008;-74
2022/08/06 10:14:29;;;;;;;2.10;0.57;;;;;;;18.76;50.35;102671.28;6159728;23;20008;-72
2022/08/06 10:17:07;;;;;;;2.73;0.70;;;;;;;18.85;50.44;102666.34;6185946;23;20001;-72
2022/08/06 10:19:34;;;;;;;3.08;0.75;;;;;;;18.93;49.61;102671.50;6159603;23;20059;-74
2022/08/06 10:22:08;;;;;;;3.30;0.70;;;;;;;18.99;48.56;102666.13;6160153;23;20013;-72
2022/08/06 10:24:38;;;;;;;1.92;0.70;;;;;;;18.92;48.95;102658.00;6159456;23;20295;-73
2022/08/06 10:27:06;;;;;;;1.75;0.70;;;;;;;19.10;49.65;102659.81;6186551;23;20357;-71
2022/08/06 10:29:33;;;;;;;3.22;0.60;;;;;;;19.02;48.04;102655.53;6159786;23;20415;-72
2022/08/06 10:31:59;;;;;;;1.92;0.63;;;;;;;19.11;49.86;102645.84;6186557;23;20012;-72
2022/08/06 10:34:27;;;;;;;2.75;0.98;;;;;;;19.23;47.71;102645.81;6185968;23;20338;-73
2022/08/06 10:36:57;;;;;;;1.70;0.60;;;;;;;19.37;46.84;102642.84;6186505;23;20013;-73
2022/08/06 10:39:26;;;;;;;2.95;0.88;;;;;;;19.53;47.07;102652.25;6186462;23;20088;-72
2022/08/06 10:41:55;;;;;;;1.77;0.60;;;;;;;19.76;47.78;102643.97;6186077;23;20008;-72
2022/08/06 10:44:22;;;;;;;2.42;0.40;;;;;;;19.58;45.58;102647.72;6185940;23;20426;-70
2022/08/06 10:46:48;;;;;;;3.53;0.88;;;;;;;19.73;48.21;102646.34;6185357;23;20016;-74
2022/08/06 10:49:14;;;;;;;2.95;0.60;;;;;;;19.64;46.51;102638.50;6185901;23;20418;-69
2022/08/06 10:51:41;;;;;;;2.75;0.75;;;;;;;19.72;46.54;102644.69;6184395;23;20088;-71
2022/08/06 10:54:06;;;;;;;2.10;0.80;;;;;;;19.78;46.54;102636.34;6185551;23;20005;-70
2022/08/06 10:56:32;;;;;;;3.00;0.85;;;;;;;19.82;45.37;102633.94;6185545;23;20029;-71
2022/08/06 10:58:58;;;;;;;1.73;0.57;;;;;;;19.96;45.05;102640.00;6184685;23;20016;-71
2022/08/06 11:01:34;;;;;;;3.53;0.80;;;;;;;20.08;46.04;102637.16;6181753;23;20028;-72
2022/08/06 11:04:14;;;;;;;1.92;0.68;;;;;;;20.24;46.00;102628.13;6185619;23;20005;-71
2022/08/06 11:07:20;;;;;;;3.22;0.90;;;;;;;20.31;47.18;102637.06;6185911;23;20005;-71
2022/08/06 11:10:19;;;;;;;2.72;0.60;;;;;;;20.36;46.40;102633.56;6139711;23;20009;-72
2022/08/06 11:12:56;;;;;;;2.13;0.73;;;;;;;20.34;46.00;102631.06;6185573;23;20059;-73
2022/08/06 11:15:22;;;;;;;2.90;0.88;;;;;;;20.34;44.95;102636.56;6186008;23;20048;-71
2022/08/06 11:17:49;;;;;;;4.28;1.00;;;;;;;20.34;44.17;102630.25;6185718;23;20009;-72
2022/08/06 11:20:32;;;;;;;0.93;0.50;;;;;;;20.37;44.69;102629.75;6184575;23;20020;-71
2022/08/06 11:23:05;;;;;;;0.98;0.50;;;;;;;20.37;42.92;102638.00;6184841;23;20009;-72
2022/08/06 11:25:39;;;;;;;2.78;0.63;;;;;;;20.33;44.15;102631.31;6185647;23;20009;-73
2022/08/06 11:28:06;;;;;;;3.45;0.70;;;;;;;20.22;43.95;102622.06;6185922;23;20008;-72
2022/08/06 11:30:53;;;;;;;1.27;0.65;;;;;;;20.29;44.64;102633.75;6158967;23;20005;-72
2022/08/06 11:33:20;;;;;;;1.00;0.47;;;;;;;20.25;44.03;102624.31;6185632;23;20429;-73
2022/08/06 11:35:50;;;;;;;1.98;0.60;;;;;;;20.30;42.57;102618.06;6185503;23;20037;-72
2022/08/06 11:38:47;;;;;;;1.27;0.50;;;;;;;20.40;42.95;102623.75;6159390;23;20005;-74
2022/08/06 11:41:29;;;;;;;1.73;0.50;;;;;;;20.46;41.81;102621.94;6185330;23;20009;-74